Time;durP1;ratioP1;P1;durP2;ratioP2;P2;SDS_P1;SDS_P2;PMS_P1;PMS_P2;Temp;Humidity;BMP_temperature;BMP_pressure;BME280_temperature;BME280_humidity;BME280_pressure;Samples;Min_cycle;Max_cycle;Signal;HPM_P1;HPM_P2
2022/11/15 00:01:52;;;;;;;8.20;7.40;;;11.20;99.90;;;;;;5118554;28;20201;-34
2022/11/15 00:04:17;;;;;;;8.77;7.80;;;11.20;99.90;;;;;;5101879;27;20191;-34
2022/11/15 00:06:43;;;;;;;8.47;7.30;;;11.30;99.90;;;;;;5092427;28;20290;-35
2022/11/15 00:09:09;;;;;;;9.20;7.90;;;11.30;99.90;;;;;;5093709;28;20211;-35
2022/11/15 00:11:34;;;;;;;7.50;6.73;;;11.30;99.90;;;;;;5114487;27;20233;-34
2022/11/15 00:14:02;;;;;;;9.07;7.30;;;11.40;99.90;;;;;;5107473;27;20210;-34
2022/11/15 00:16:28;;;;;;;11.00;7.90;;;11.40;99.90;;;;;;5092257;28;20207;-34
2022/11/15 00:18:53;;;;;;;9.77;8.63;;;11.40;99.90;;;;;;5099991;28;20418;-34
2022/11/15 00:21:19;;;;;;;10.23;7.10;;;11.40;99.90;;;;;;5093286;28;20215;-34
2022/11/15 00:23:45;;;;;;;10.20;7.60;;;11.50;99.90;;;;;;5104493;27;20191;-34
2022/11/15 00:26:13;;;;;;;9.57;8.23;;;11.50;99.90;;;;;;5093479;28;20196;-34
2022/11/15 00:28:38;;;;;;;8.90;7.67;;;11.50;99.90;;;;;;5093188;28;20189;-34
2022/11/15 00:31:07;;;;;;;12.37;7.10;;;11.60;99.90;;;;;;5093606;28;20425;-34
2022/11/15 00:33:33;;;;;;;8.80;7.90;;;11.60;99.90;;;;;;5091958;28;20203;-34
2022/11/15 00:36:04;;;;;;;10.43;7.40;;;11.60;99.90;;;;;;5093857;28;20422;-34
2022/11/15 00:38:35;;;;;;;11.60;7.50;;;11.60;99.90;;;;;;5091701;28;20811;-34
2022/11/15 00:41:02;;;;;;;8.50;7.70;;;11.60;99.90;;;;;;5093321;28;20476;-35
2022/11/15 00:43:28;;;;;;;9.73;8.23;;;11.70;99.90;;;;;;5092830;28;20754;-34
2022/11/15 00:45:54;;;;;;;8.50;7.60;;;11.70;99.90;;;;;;5093211;28;20430;-34
2022/11/15 00:48:19;;;;;;;11.20;7.60;;;11.70;99.90;;;;;;5092832;28;20181;-34
2022/11/15 00:50:45;;;;;;;8.80;7.10;;;11.70;99.90;;;;;;5099932;27;20424;-35
2022/11/15 00:53:11;;;;;;;8.87;7.60;;;11.80;99.90;;;;;;5113085;28;20199;-34
2022/11/15 00:55:36;;;;;;;8.20;6.90;;;11.80;99.90;;;;;;5112070;28;20805;-34
2022/11/15 00:58:02;;;;;;;7.90;7.10;;;11.80;99.90;;;;;;5113498;28;20215;-34
2022/11/15 01:00:28;;;;;;;8.90;7.17;;;11.80;99.90;;;;;;5112822;28;20227;-34
2022/11/15 01:02:53;;;;;;;12.33;7.80;;;11.90;99.90;;;;;;5112829;28;20263;-34
2022/11/15 01:05:20;;;;;;;9.03;7.00;;;11.90;99.90;;;;;;5112850;28;20191;-35
2022/11/15 01:07:45;;;;;;;8.30;7.17;;;12.00;99.90;;;;;;5113256;28;20216;-34
2022/11/15 01:10:11;;;;;;;12.40;8.50;;;12.00;99.90;;;;;;5111362;28;20425;-34
2022/11/15 01:12:37;;;;;;;8.50;7.07;;;12.00;99.90;;;;;;5112862;28;20199;-35
2022/11/15 01:15:04;;;;;;;9.37;8.17;;;12.00;99.90;;;;;;5112960;28;20668;-34
2022/11/15 01:17:30;;;;;;;10.90;8.10;;;12.00;99.90;;;;;;5111638;28;20184;-35
2022/11/15 01:19:56;;;;;;;7.77;6.90;;;12.00;99.90;;;;;;5090858;28;20462;-34
2022/11/15 01:22:22;;;;;;;7.90;7.10;;;12.10;99.90;;;;;;5101991;27;20425;-34
2022/11/15 01:24:50;;;;;;;9.73;8.10;;;12.10;99.90;;;;;;5092402;28;20621;-34
2022/11/15 01:27:16;;;;;;;8.57;7.70;;;12.10;99.90;;;;;;5092342;28;20480;-34
2022/11/15 01:29:41;;;;;;;8.77;7.87;;;12.10;99.90;;;;;;5092000;28;20414;-34
2022/11/15 01:32:07;;;;;;;8.53;6.43;;;12.20;99.90;;;;;;5091910;28;20434;-34
2022/11/15 01:34:33;;;;;;;7.87;7.07;;;12.20;99.90;;;;;;5091152;28;20180;-34
2022/11/15 01:36:59;;;;;;;9.00;8.10;;;12.20;99.90;;;;;;5092320;28;20846;-35
2022/11/15 01:39:26;;;;;;;8.67;7.43;;;12.30;99.90;;;;;;5091941;28;20185;-34
2022/11/15 01:41:51;;;;;;;10.27;7.20;;;12.30;99.90;;;;;;5092252;28;20779;-35
2022/11/15 01:44:43;;;;;;;7.60;6.80;;;12.30;99.90;;;;;;5091929;28;20419;-35
2022/11/15 01:47:15;;;;;;;9.83;7.20;;;12.30;99.90;;;;;;5092142;28;20658;-34
2022/11/15 01:49:51;;;;;;;8.03;7.00;;;12.30;99.90;;;;;;5090465;28;20403;-34
2022/11/15 01:52:19;;;;;;;8.30;7.20;;;12.30;99.90;;;;;;5091998;28;21161;-34
2022/11/15 01:54:47;;;;;;;7.20;6.50;;;12.30;99.90;;;;;;5091660;28;20434;-34
2022/11/15 01:57:13;;;;;;;8.00;6.20;;;12.40;99.90;;;;;;5092141;28;20471;-34
2022/11/15 01:59:44;;;;;;;6.93;6.27;;;12.40;99.90;;;;;;5091451;28;20906;-34
2022/11/15 02:02:10;;;;;;;7.10;6.40;;;12.40;99.90;;;;;;5092119;28;20410;-34
2022/11/15 02:04:44;;;;;;;6.90;6.23;;;12.40;99.90;;;;;;5091573;28;20405;-34
2022/11/15 02:07:13;;;;;;;8.23;7.43;;;12.50;99.90;;;;;;5091666;28;20505;-34
2022/11/15 02:09:39;;;;;;;7.73;6.93;;;12.40;99.90;;;;;;5091203;28;20437;-34
2022/11/15 02:12:07;;;;;;;13.53;7.20;;;12.50;99.90;;;;;;5090412;28;20944;-34
2022/11/15 02:14:34;;;;;;;8.13;6.83;;;12.40;99.90;;;;;;5091184;28;20415;-34
2022/11/15 02:17:23;;;;;;;8.00;7.13;;;12.50;99.90;;;;;;5094695;28;20421;-34
2022/11/15 02:19:54;;;;;;;7.40;6.70;;;12.40;99.90;;;;;;5105314;28;20468;-35
2022/11/15 02:23:09;;;;;;;6.67;6.00;;;12.50;99.90;;;;;;5111540;28;20414;-35
2022/11/15 02:25:57;;;;;;;7.43;6.00;;;12.50;99.90;;;;;;5111834;28;20775;-35
2022/11/15 02:28:34;;;;;;;7.10;6.37;;;12.50;99.90;;;;;;5110952;28;20410;-34
2022/11/15 02:31:33;;;;;;;7.40;6.70;;;12.40;99.90;;;;;;5111693;28;20476;-35
2022/11/15 02:34:22;;;;;;;11.40;7.03;;;12.40;99.90;;;;;;5110470;28;20406;-35
2022/11/15 02:37:02;;;;;;;8.30;6.93;;;12.50;99.90;;;;;;5111319;28;20406;-34
2022/11/15 02:39:35;;;;;;;7.57;6.83;;;12.50;99.90;;;;;;5111140;28;20413;-35
2022/11/15 02:43:56;;;;;;;8.40;7.60;;;12.50;99.90;;;;;;5111369;28;20440;-34
2022/11/15 02:44:55;;;;;;;8.30;7.40;;;12.50;99.90;;;;;;5111089;28;20409;-34
2022/11/15 02:47:24;;;;;;;7.87;7.07;;;12.50;99.90;;;;;;5111246;28;20462;-34
2022/11/15 02:49:55;;;;;;;9.10;7.43;;;12.50;99.90;;;;;;5111038;28;20414;-34
2022/11/15 02:52:22;;;;;;;7.67;6.87;;;12.50;99.90;;;;;;5110737;28;20416;-34
2022/11/15 02:54:59;;;;;;;9.03;7.87;;;12.50;99.90;;;;;;5110358;28;20459;-34
2022/11/15 02:57:49;;;;;;;9.43;7.90;;;12.50;99.90;;;;;;5110110;28;20483;-34
2022/11/15 03:00:20;;;;;;;9.70;7.90;;;12.50;99.90;;;;;;5110649;28;20449;-35
2022/11/15 03:02:45;;;;;;;8.73;7.87;;;12.50;99.90;;;;;;5110811;28;20409;-34
2022/11/15 03:05:39;;;;;;;9.03;7.43;;;12.50;99.90;;;;;;5110877;28;20441;-34
2022/11/15 03:08:14;;;;;;;9.67;8.47;;;12.50;99.90;;;;;;5111007;28;20532;-34
2022/11/15 03:10:55;;;;;;;9.70;8.63;;;12.50;99.90;;;;;;5110579;28;20514;-35
2022/11/15 03:13:38;;;;;;;10.77;7.63;;;12.50;99.90;;;;;;5110551;28;20402;-34
2022/11/15 03:16:35;;;;;;;9.07;8.07;;;12.50;99.90;;;;;;5110826;28;20412;-34
2022/11/15 03:19:31;;;;;;;10.93;7.80;;;12.60;99.90;;;;;;5110377;28;20500;-34
2022/11/15 03:22:00;;;;;;;9.70;7.70;;;12.60;99.90;;;;;;5110756;28;20402;-34
2022/11/15 03:24:29;;;;;;;12.80;8.13;;;12.60;99.90;;;;;;5110149;28;20899;-34
2022/11/15 03:26:56;;;;;;;11.53;8.20;;;12.60;99.90;;;;;;5109510;28;20400;-34
2022/11/15 03:29:27;;;;;;;8.83;7.93;;;12.60;99.90;;;;;;5110303;28;20762;-35
2022/11/15 03:31:58;;;;;;;9.30;6.70;;;12.60;99.90;;;;;;5110767;28;20444;-35
2022/11/15 03:34:31;;;;;;;10.60;7.33;;;12.60;99.90;;;;;;5108027;28;20410;-34
2022/11/15 03:36:57;;;;;;;8.10;7.30;;;12.60;99.90;;;;;;5110434;28;20410;-34
2022/11/15 03:39:25;;;;;;;11.00;7.17;;;12.60;99.90;;;;;;5109835;28;20394;-34
2022/11/15 03:42:18;;;;;;;10.27;7.37;;;12.60;99.90;;;;;;5109819;28;20468;-35
2022/11/15 03:44:59;;;;;;;7.93;7.23;;;12.70;99.90;;;;;;5110167;28;20402;-34
2022/11/15 03:48:14;;;;;;;12.87;7.20;;;12.70;99.90;;;;;;5110392;28;20402;-34
2022/11/15 03:50:42;;;;;;;8.50;6.60;;;12.70;99.90;;;;;;5086640;28;20418;-35
2022/11/15 03:53:08;;;;;;;7.30;6.60;;;12.70;99.90;;;;;;5086823;28;20407;-34
2022/11/15 03:55:33;;;;;;;11.00;6.97;;;12.70;99.90;;;;;;5099606;28;21123;-35
2022/11/15 03:58:00;;;;;;;8.30;7.50;;;12.70;99.90;;;;;;5110266;28;20191;-34
2022/11/15 04:00:27;;;;;;;11.30;7.40;;;12.60;99.90;;;;;;5110101;28;20557;-35
2022/11/15 04:02:53;;;;;;;7.43;6.73;;;12.70;99.90;;;;;;5109888;28;20402;-35
2022/11/15 04:05:19;;;;;;;8.97;6.93;;;12.60;99.90;;;;;;5110279;28;20401;-35
2022/11/15 04:07:44;;;;;;;7.00;6.30;;;12.60;99.90;;;;;;5110174;28;20518;-34
2022/11/15 04:10:11;;;;;;;8.80;6.97;;;12.60;99.90;;;;;;5109846;28;20767;-35
2022/11/15 04:12:40;;;;;;;8.13;7.00;;;12.70;99.90;;;;;;5109999;28;20748;-34
2022/11/15 04:15:15;;;;;;;8.23;7.43;;;12.60;99.90;;;;;;5110257;28;20465;-35
2022/11/15 04:17:40;;;;;;;7.83;6.80;;;12.70;99.90;;;;;;5110036;28;20420;-34
2022/11/15 04:25:41;;;;;;;7.60;6.90;;;12.70;99.90;;;;;;5110109;28;20926;-37
2022/11/15 04:28:07;;;;;;;8.60;7.53;;;12.70;99.90;;;;;;5109848;28;20437;-35
2022/11/15 04:30:32;;;;;;;7.83;7.07;;;12.60;99.90;;;;;;5109699;28;20956;-34
2022/11/15 04:32:58;;;;;;;7.97;6.20;;;12.60;99.90;;;;;;5108802;28;20183;-35
2022/11/15 04:35:24;;;;;;;7.47;6.53;;;12.70;99.90;;;;;;5109699;28;20229;-34
2022/11/15 04:37:50;;;;;;;7.27;6.57;;;12.60;99.90;;;;;;5110052;28;20663;-34
2022/11/15 04:40:15;;;;;;;7.93;7.13;;;12.70;99.90;;;;;;5109408;28;20299;-35
2022/11/15 04:42:42;;;;;;;9.20;6.53;;;12.70;99.90;;;;;;5109683;28;20187;-34
2022/11/15 04:45:09;;;;;;;8.50;7.03;;;12.70;99.90;;;;;;5108471;28;20184;-34
2022/11/15 04:47:35;;;;;;;8.87;7.43;;;12.70;99.90;;;;;;5109933;28;20417;-34
2022/11/15 04:50:00;;;;;;;7.03;6.40;;;12.70;99.90;;;;;;5108963;28;20425;-34
2022/11/15 04:52:26;;;;;;;7.47;6.77;;;12.70;99.90;;;;;;5111987;28;20228;-34
2022/11/15 04:54:52;;;;;;;7.27;6.60;;;12.70;99.90;;;;;;5113515;28;20214;-34
2022/11/15 04:57:18;;;;;;;7.90;7.00;;;12.70;99.90;;;;;;5113663;28;20587;-35
2022/11/15 04:59:43;;;;;;;8.47;7.40;;;12.70;99.90;;;;;;5113101;28;20187;-34
2022/11/15 05:02:09;;;;;;;8.40;7.33;;;12.70;99.90;;;;;;5113277;28;20413;-35
2022/11/15 05:04:34;;;;;;;7.63;6.80;;;12.70;99.90;;;;;;5111727;28;20199;-34
2022/11/15 05:07:00;;;;;;;7.53;6.73;;;12.70;99.90;;;;;;5113223;28;20192;-34
2022/11/15 05:09:26;;;;;;;7.73;6.47;;;12.70;99.90;;;;;;5113089;27;20176;-34
2022/11/15 05:11:51;;;;;;;7.50;6.70;;;12.70;99.90;;;;;;5113247;28;20188;-34
2022/11/15 05:14:17;;;;;;;9.17;6.90;;;12.70;99.90;;;;;;5113025;28;20201;-34
2022/11/15 05:16:43;;;;;;;7.43;6.70;;;12.70;99.90;;;;;;5113242;28;20207;-34
2022/11/15 05:19:09;;;;;;;9.03;7.80;;;12.70;99.90;;;;;;5112638;28;20238;-34
2022/11/15 05:21:35;;;;;;;8.60;7.77;;;12.80;99.90;;;;;;5112842;28;20647;-35
2022/11/15 05:24:01;;;;;;;7.97;7.17;;;12.80;99.90;;;;;;5112716;28;20176;-35
2022/11/15 05:26:27;;;;;;;7.77;6.97;;;12.70;99.90;;;;;;5112859;28;20895;-34
2022/11/15 05:28:54;;;;;;;12.83;7.83;;;12.70;99.90;;;;;;5112547;28;20416;-34
2022/11/15 05:31:21;;;;;;;11.47;7.63;;;12.80;99.90;;;;;;5113052;28;20432;-34
2022/11/15 05:33:46;;;;;;;8.37;7.57;;;12.70;99.90;;;;;;5111361;28;20425;-34
2022/11/15 05:36:18;;;;;;;13.17;7.43;;;12.70;99.90;;;;;;5111321;28;20854;-34
2022/11/15 05:38:45;;;;;;;9.10;7.30;;;12.70;99.90;;;;;;5112357;28;20496;-34
2022/11/15 05:41:12;;;;;;;8.30;7.43;;;12.80;99.90;;;;;;5111383;28;20480;-34
2022/11/15 05:43:39;;;;;;;9.43;7.90;;;12.80;99.90;;;;;;5112421;28;20413;-34
2022/11/15 05:46:05;;;;;;;8.40;7.50;;;12.80;99.90;;;;;;5112436;28;20732;-34
2022/11/15 05:48:32;;;;;;;9.50;7.80;;;12.80;99.90;;;;;;5107155;27;20454;-34
2022/11/15 05:50:59;;;;;;;7.80;7.00;;;12.80;99.90;;;;;;5112181;27;20767;-34
2022/11/15 05:53:25;;;;;;;9.40;7.60;;;12.80;99.90;;;;;;5121569;27;20426;-34
2022/11/15 05:55:51;;;;;;;7.60;6.83;;;12.80;99.90;;;;;;5125832;27;20512;-34
2022/11/15 05:58:18;;;;;;;7.10;6.40;;;12.80;99.90;;;;;;5118609;27;20460;-35
2022/11/15 06:00:44;;;;;;;8.23;7.43;;;12.70;99.90;;;;;;5097339;27;20449;-35
2022/11/15 06:03:10;;;;;;;7.70;6.40;;;12.80;99.90;;;;;;5122929;27;20798;-35
2022/11/15 06:05:36;;;;;;;7.40;6.70;;;12.80;99.90;;;;;;5132538;27;20439;-37
2022/11/15 06:08:01;;;;;;;8.03;7.17;;;12.80;99.90;;;;;;5131514;27;20182;-37
2022/11/15 06:10:27;;;;;;;7.73;6.97;;;12.80;99.90;;;;;;5132208;27;20179;-35
2022/11/15 06:13:04;;;;;;;7.97;6.10;;;12.80;99.90;;;;;;5132401;27;20179;-36
2022/11/15 06:15:31;;;;;;;6.07;5.47;;;12.80;99.90;;;;;;5118111;27;20211;-35
2022/11/15 06:17:57;;;;;;;6.63;6.03;;;12.80;99.90;;;;;;5112375;27;20417;-35
2022/11/15 06:20:24;;;;;;;6.30;5.67;;;12.80;99.90;;;;;;5132170;27;20576;-34
2022/11/15 06:22:50;;;;;;;5.80;5.30;;;12.80;99.90;;;;;;5132213;27;20557;-35
2022/11/15 06:25:15;;;;;;;6.43;5.73;;;12.80;99.90;;;;;;5132354;27;20414;-35
2022/11/15 06:27:41;;;;;;;6.03;5.53;;;12.80;99.90;;;;;;5099475;27;20184;-35
2022/11/15 06:30:07;;;;;;;5.70;5.10;;;12.80;99.90;;;;;;5091027;28;20191;-35
2022/11/15 06:32:33;;;;;;;6.60;5.30;;;12.80;99.90;;;;;;5090235;28;20823;-34
2022/11/15 06:34:58;;;;;;;5.00;4.60;;;12.80;99.90;;;;;;5094489;28;20426;-34
2022/11/15 06:37:24;;;;;;;4.57;4.17;;;12.90;99.90;;;;;;5111516;28;20175;-34
2022/11/15 06:39:49;;;;;;;5.93;5.40;;;12.90;99.90;;;;;;5111113;28;20180;-35
2022/11/15 06:42:15;;;;;;;4.87;4.20;;;12.90;99.90;;;;;;5111281;28;20565;-34
2022/11/15 06:44:41;;;;;;;5.13;4.00;;;12.90;99.90;;;;;;5111173;28;20182;-34
2022/11/15 06:47:06;;;;;;;5.97;5.37;;;12.90;99.90;;;;;;5110241;28;20270;-34
2022/11/15 06:49:32;;;;;;;4.60;4.20;;;12.90;99.90;;;;;;5118470;27;20194;-35
2022/11/15 06:51:58;;;;;;;4.83;3.50;;;13.00;99.90;;;;;;5105256;27;20192;-34
2022/11/15 06:54:23;;;;;;;4.53;4.13;;;12.90;99.90;;;;;;5108274;27;21034;-34
2022/11/15 06:56:49;;;;;;;4.47;3.87;;;12.90;99.90;;;;;;5101259;27;20646;-35
2022/11/15 06:59:15;;;;;;;4.70;4.17;;;12.90;99.90;;;;;;5097055;28;20188;-35
2022/11/15 07:01:40;;;;;;;4.20;3.80;;;12.90;99.90;;;;;;5090718;28;20208;-34
2022/11/15 07:04:06;;;;;;;5.07;4.57;;;12.90;99.90;;;;;;5090455;28;20191;-34
2022/11/15 07:06:31;;;;;;;4.40;4.00;;;12.90;99.90;;;;;;5101941;27;20199;-34
2022/11/15 07:08:57;;;;;;;4.00;3.60;;;12.90;99.90;;;;;;5116024;27;20252;-34
2022/11/15 07:11:23;;;;;;;3.40;3.10;;;13.00;99.90;;;;;;5127433;27;20187;-35
2022/11/15 07:13:48;;;;;;;5.40;3.53;;;12.90;99.90;;;;;;5130205;27;20179;-34
2022/11/15 07:16:14;;;;;;;3.93;3.10;;;13.00;99.90;;;;;;5130751;27;20201;-34
2022/11/15 07:18:40;;;;;;;4.93;3.47;;;12.90;99.90;;;;;;5112375;27;20180;-34
2022/11/15 07:21:09;;;;;;;6.10;4.10;;;13.00;99.90;;;;;;5110178;28;20701;-34
2022/11/15 07:23:38;;;;;;;5.20;3.40;;;12.90;99.90;;;;;;5104040;28;20765;-34
2022/11/15 07:26:04;;;;;;;4.27;3.40;;;12.90;99.90;;;;;;5098728;28;20414;-34
2022/11/15 07:28:30;;;;;;;3.10;2.80;;;12.90;99.90;;;;;;5099031;28;20465;-35
2022/11/15 07:30:56;;;;;;;4.03;2.87;;;12.90;99.90;;;;;;5107513;28;20483;-34
2022/11/15 07:33:22;;;;;;;4.10;2.97;;;12.90;99.90;;;;;;5109426;28;20183;-34
2022/11/15 07:35:50;;;;;;;3.40;3.10;;;12.90;99.90;;;;;;5100710;28;20176;-34
2022/11/15 07:38:20;;;;;;;3.70;3.33;;;12.90;99.90;;;;;;5099720;28;20418;-34
2022/11/15 07:40:46;;;;;;;3.10;2.80;;;12.90;99.90;;;;;;5100240;28;20485;-34
2022/11/15 07:43:12;;;;;;;3.30;3.00;;;12.90;99.90;;;;;;5098733;28;20419;-35
2022/11/15 07:45:42;;;;;;;3.73;3.30;;;12.90;99.90;;;;;;5099828;28;20953;-35
2022/11/15 07:48:08;;;;;;;3.83;3.47;;;12.90;99.90;;;;;;5104166;28;20248;-34
2022/11/15 07:50:34;;;;;;;3.20;2.90;;;12.90;99.90;;;;;;5110170;28;20452;-34
2022/11/15 07:53:00;;;;;;;3.20;2.90;;;12.90;99.90;;;;;;5110004;28;20179;-35
2022/11/15 07:55:28;;;;;;;3.77;2.83;;;12.90;99.90;;;;;;5102507;28;20542;-34
2022/11/15 07:57:59;;;;;;;3.47;2.90;;;12.80;99.90;;;;;;5104370;28;20460;-34
2022/11/15 08:00:25;;;;;;;3.70;3.40;;;12.90;99.90;;;;;;5108735;28;20518;-34
2022/11/15 08:02:51;;;;;;;3.37;2.90;;;12.90;99.90;;;;;;5109908;28;21078;-34
2022/11/15 08:05:16;;;;;;;3.37;2.97;;;12.90;99.90;;;;;;5110163;28;20180;-34
2022/11/15 08:07:42;;;;;;;2.60;2.40;;;12.90;99.90;;;;;;5110188;28;20183;-34
2022/11/15 08:10:08;;;;;;;3.00;2.70;;;12.90;99.90;;;;;;5109809;28;20234;-35
2022/11/15 08:12:34;;;;;;;4.00;2.60;;;13.00;99.90;;;;;;5110294;28;20179;-34
2022/11/15 08:15:00;;;;;;;4.40;2.80;;;13.10;99.90;;;;;;5109909;28;20813;-34
2022/11/15 08:17:26;;;;;;;2.90;2.60;;;13.20;99.90;;;;;;5110081;28;20417;-34
2022/11/15 08:19:52;;;;;;;2.60;2.40;;;13.40;99.90;;;;;;5109735;28;20206;-34
2022/11/15 08:22:18;;;;;;;2.70;2.50;;;13.50;99.90;;;;;;5110048;28;20413;-35
2022/11/15 08:24:44;;;;;;;4.90;2.50;;;13.60;99.90;;;;;;5109670;28;20246;-35
2022/11/15 08:27:14;;;;;;;2.60;2.23;;;13.70;99.90;;;;;;5112026;28;20448;-35
2022/11/15 08:29:50;;;;;;;2.70;2.50;;;13.70;99.90;;;;;;5113367;28;20270;-35
2022/11/15 08:32:15;;;;;;;3.37;2.50;;;13.80;99.90;;;;;;5114031;28;20412;-34
2022/11/15 08:34:41;;;;;;;2.47;2.27;;;13.80;99.90;;;;;;5112989;28;20501;-35
2022/11/15 08:37:07;;;;;;;2.60;2.40;;;13.80;99.90;;;;;;5112411;28;20207;-34
2022/11/15 08:39:32;;;;;;;4.20;2.40;;;13.90;99.90;;;;;;5110329;28;20200;-34
2022/11/15 08:41:58;;;;;;;2.50;2.30;;;13.90;99.90;;;;;;5107853;28;20207;-34
2022/11/15 08:44:24;;;;;;;2.77;2.57;;;14.00;99.90;;;;;;5113200;28;20656;-35
2022/11/15 08:46:49;;;;;;;2.50;2.30;;;14.00;99.90;;;;;;5112689;28;20175;-35
2022/11/15 08:49:15;;;;;;;3.10;2.70;;;14.00;99.90;;;;;;5112811;28;20625;-34
2022/11/15 08:51:41;;;;;;;2.40;1.90;;;14.00;99.90;;;;;;5113271;28;20188;-34
2022/11/15 08:54:07;;;;;;;3.60;2.10;;;14.00;99.90;;;;;;5112968;28;20441;-35
2022/11/15 08:56:33;;;;;;;2.43;2.23;;;14.00;99.90;;;;;;5113091;28;20432;-35
2022/11/15 08:58:58;;;;;;;2.23;2.03;;;14.10;99.90;;;;;;5112958;28;20187;-35
2022/11/15 09:01:24;;;;;;;2.43;1.97;;;14.10;99.90;;;;;;5113316;28;20214;-35
2022/11/15 09:03:49;;;;;;;1.87;1.70;;;14.10;99.90;;;;;;5113077;28;20171;-34
2022/11/15 09:06:15;;;;;;;1.97;1.70;;;14.20;99.90;;;;;;5113104;27;20183;-34
2022/11/15 09:08:41;;;;;;;2.47;2.00;;;14.20;99.90;;;;;;5111560;28;20176;-34
2022/11/15 09:11:08;;;;;;;3.27;1.90;;;14.10;99.90;;;;;;5113316;28;20180;-35
2022/11/15 09:13:34;;;;;;;1.73;1.50;;;14.10;99.90;;;;;;5113275;28;20187;-35
2022/11/15 09:16:01;;;;;;;2.27;1.50;;;14.10;99.90;;;;;;5113153;28;20431;-35
2022/11/15 09:18:27;;;;;;;4.90;1.57;;;14.10;99.90;;;;;;5112779;28;20198;-34
2022/11/15 09:20:58;;;;;;;3.20;1.93;;;14.10;99.90;;;;;;5112847;28;20445;-35
2022/11/15 09:23:25;;;;;;;3.63;1.57;;;14.10;99.90;;;;;;5112891;28;20530;-35
2022/11/15 09:25:51;;;;;;;1.70;1.60;;;14.10;99.90;;;;;;5112954;28;20467;-35
2022/11/15 09:28:17;;;;;;;2.57;1.97;;;14.20;99.90;;;;;;5112887;28;20406;-35
2022/11/15 09:30:42;;;;;;;1.57;1.47;;;14.20;99.90;;;;;;5111312;28;20424;-34
2022/11/15 09:33:09;;;;;;;2.03;1.60;;;14.30;99.90;;;;;;5111712;28;20191;-34
2022/11/15 09:35:35;;;;;;;3.20;1.60;;;14.30;99.90;;;;;;5113040;28;20266;-35
2022/11/15 09:38:02;;;;;;;2.30;1.80;;;14.30;99.90;;;;;;5112750;28;20509;-35
2022/11/15 09:40:29;;;;;;;2.30;1.70;;;14.40;99.90;;;;;;5112325;28;20544;-34
2022/11/15 09:43:09;;;;;;;2.40;1.63;;;14.30;99.90;;;;;;5112187;28;20417;-35
2022/11/15 09:46:07;;;;;;;1.83;1.70;;;14.30;99.90;;;;;;5112572;28;20454;-34
2022/11/15 09:49:03;;;;;;;1.63;1.53;;;14.30;99.90;;;;;;5112075;28;20456;-34
2022/11/15 09:51:46;;;;;;;1.43;1.07;;;14.40;99.90;;;;;;5112638;28;21149;-35
2022/11/15 09:54:41;;;;;;;1.53;1.37;;;14.40;99.90;;;;;;5110766;28;20413;-35
2022/11/15 09:57:14;;;;;;;1.83;1.33;;;14.60;99.90;;;;;;5112595;28;20447;-35
2022/11/15 10:00:01;;;;;;;2.17;1.60;;;14.80;99.90;;;;;;5112178;28;20445;-35
2022/11/15 10:03:01;;;;;;;1.43;1.07;;;15.00;99.90;;;;;;5111978;28;20443;-35
2022/11/15 10:05:28;;;;;;;1.27;1.10;;;15.20;99.90;;;;;;5112063;28;20768;-35
2022/11/15 10:07:57;;;;;;;1.70;1.40;;;15.30;99.90;;;;;;5112365;28;20417;-36
2022/11/15 10:10:39;;;;;;;1.40;1.10;;;15.20;99.90;;;;;;5111464;28;20433;-34
2022/11/15 10:13:07;;;;;;;2.67;1.60;;;15.20;99.90;;;;;;5110630;28;20437;-35
2022/11/15 10:15:34;;;;;;;1.77;1.27;;;15.10;99.90;;;;;;5112133;28;20775;-34
2022/11/15 10:18:54;;;;;;;2.40;1.23;;;15.10;99.90;;;;;;5110732;28;20441;-34
2022/11/15 10:21:23;;;;;;;1.33;1.10;;;15.00;99.90;;;;;;5068068;28;20474;-35
2022/11/15 10:23:51;;;;;;;3.20;1.30;;;14.90;99.90;;;;;;5068044;28;20484;-35
2022/11/15 10:26:17;;;;;;;3.53;1.27;;;14.90;99.90;;;;;;5085690;28;20539;-35
2022/11/15 10:28:43;;;;;;;1.33;1.13;;;14.80;99.90;;;;;;5111478;28;20461;-34
2022/11/15 10:31:23;;;;;;;2.33;1.30;;;14.80;99.90;;;;;;5111575;28;20497;-35
2022/11/15 10:33:49;;;;;;;1.47;1.37;;;14.80;99.90;;;;;;5111071;27;20218;-35
2022/11/15 10:36:22;;;;;;;2.20;1.13;;;14.80;99.90;;;;;;5111720;28;20518;-35
2022/11/15 10:38:53;;;;;;;1.60;1.00;;;14.80;99.90;;;;;;5111208;27;20409;-35
2022/11/15 10:41:22;;;;;;;2.60;1.00;;;14.80;99.90;;;;;;5111551;28;20461;-34
2022/11/15 10:44:08;;;;;;;2.10;1.43;;;14.70;99.90;;;;;;5111197;28;20889;-35
2022/11/15 10:46:36;;;;;;;1.87;1.30;;;14.70;99.90;;;;;;5111618;27;20499;-35
2022/11/15 10:49:25;;;;;;;1.43;1.33;;;14.70;99.90;;;;;;5110493;28;20837;-35
2022/11/15 10:52:14;;;;;;;2.93;1.20;;;14.70;99.90;;;;;;5111458;28;20459;-35
2022/11/15 10:54:58;;;;;;;2.10;1.20;;;14.80;99.90;;;;;;5110781;28;20494;-34
2022/11/15 10:57:52;;;;;;;1.60;1.37;;;14.70;99.90;;;;;;5109152;28;20836;-36
2022/11/15 11:00:21;;;;;;;1.60;1.37;;;14.70;99.90;;;;;;5108491;28;20468;-35
2022/11/15 11:03:21;;;;;;;2.10;1.90;;;14.70;99.90;;;;;;5110387;28;20785;-35
2022/11/15 11:05:47;;;;;;;1.93;1.20;;;14.60;99.90;;;;;;5110722;28;20434;-35
2022/11/15 11:08:13;;;;;;;1.13;1.03;;;14.60;99.90;;;;;;5111163;28;20458;-34
2022/11/15 11:10:39;;;;;;;1.27;0.90;;;14.60;99.90;;;;;;5110525;28;20183;-34
2022/11/15 11:13:26;;;;;;;1.13;1.00;;;14.60;99.90;;;;;;5110564;27;20685;-35
2022/11/15 11:16:13;;;;;;;1.80;1.07;;;14.70;99.90;;;;;;5110765;28;20417;-35
2022/11/15 11:18:42;;;;;;;1.40;1.20;;;14.70;99.90;;;;;;5110511;28;20409;-35
2022/11/15 11:21:33;;;;;;;1.67;1.33;;;14.70;99.90;;;;;;5110490;28;20472;-35
2022/11/15 11:24:32;;;;;;;1.73;1.10;;;14.60;99.90;;;;;;5110202;28;20421;-34
2022/11/15 11:27:04;;;;;;;1.40;1.10;;;14.50;99.90;;;;;;5109155;28;20892;-35
2022/11/15 11:29:50;;;;;;;1.30;1.00;;;14.60;99.90;;;;;;5110433;28;20401;-35
2022/11/15 11:32:49;;;;;;;1.20;1.00;;;14.70;99.90;;;;;;5109242;28;20401;-35
2022/11/15 11:35:30;;;;;;;1.93;0.93;;;14.90;99.90;;;;;;5110729;28;20826;-35
2022/11/15 11:38:06;;;;;;;3.03;1.20;;;15.00;99.90;;;;;;5110454;28;20488;-35
2022/11/15 11:40:54;;;;;;;6.07;1.70;;;15.20;99.90;;;;;;5110140;28;20444;-34
2022/11/15 11:43:47;;;;;;;2.33;1.30;;;15.40;99.90;;;;;;5110333;28;20413;-35
2022/11/15 11:46:45;;;;;;;1.20;1.00;;;15.40;99.90;;;;;;5110563;28;20402;-35
2022/11/15 11:49:27;;;;;;;1.47;0.90;;;15.50;99.90;;;;;;5100950;28;20413;-34
2022/11/15 11:52:00;;;;;;;1.30;1.20;;;15.60;99.90;;;;;;5110549;28;20437;-35
2022/11/15 11:54:38;;;;;;;1.10;1.00;;;15.70;99.90;;;;;;5108596;28;20950;-34
2022/11/15 11:57:11;;;;;;;1.27;1.10;;;15.70;99.90;;;;;;5110322;28;20496;-35
2022/11/15 11:59:43;;;;;;;1.20;0.80;;;15.70;99.30;;;;;;5110015;28;20455;-34
2022/11/15 12:02:25;;;;;;;3.20;1.20;;;15.70;99.80;;;;;;5112583;28;20494;-36
2022/11/15 12:04:55;;;;;;;1.70;1.10;;;15.70;98.60;;;;;;5114319;28;20410;-35
2022/11/15 12:07:25;;;;;;;0.70;0.70;;;15.60;98.60;;;;;;5114254;28;20433;-34
2022/11/15 12:10:11;;;;;;;1.60;0.90;;;15.50;98.70;;;;;;5114316;28;20457;-34
2022/11/15 12:12:49;;;;;;;0.90;0.80;;;15.40;99.00;;;;;;5114358;28;20405;-35
2022/11/15 12:16:10;;;;;;;2.17;0.70;;;15.30;99.40;;;;;;5113214;28;20771;-35
2022/11/15 12:18:36;;;;;;;1.57;0.67;;;15.30;98.50;;;;;;5086918;28;20513;-34
2022/11/15 12:21:16;;;;;;;1.10;0.90;;;15.20;98.80;;;;;;5093801;28;20454;-34
2022/11/15 12:23:58;;;;;;;2.27;0.87;;;15.10;98.30;;;;;;5127942;27;20824;-35
2022/11/15 12:26:31;;;;;;;1.00;0.90;;;15.00;98.40;;;;;;5134801;27;20417;-35
2022/11/15 12:29:02;;;;;;;1.30;0.90;;;15.00;98.70;;;;;;5134445;27;20418;-35
2022/11/15 12:31:34;;;;;;;2.10;0.70;;;14.90;99.00;;;;;;5133399;27;20424;-35
2022/11/15 12:34:03;;;;;;;0.97;0.90;;;14.90;99.10;;;;;;5134098;27;20457;-35
2022/11/15 12:36:39;;;;;;;2.53;0.90;;;14.80;98.90;;;;;;5116082;27;20408;-35
2022/11/15 12:39:08;;;;;;;4.23;1.00;;;14.80;98.70;;;;;;5116130;27;20420;-34
2022/11/15 12:42:04;;;;;;;0.80;0.80;;;14.70;99.40;;;;;;5134468;27;20499;-35
2022/11/15 12:44:30;;;;;;;1.33;0.87;;;14.70;99.70;;;;;;5133952;27;20434;-34
2022/11/15 12:46:55;;;;;;;1.10;0.80;;;14.70;99.90;;;;;;5134120;27;20413;-35
2022/11/15 12:49:27;;;;;;;1.20;0.87;;;14.70;99.90;;;;;;5133900;27;20258;-35
2022/11/15 12:51:58;;;;;;;2.57;0.83;;;14.70;99.90;;;;;;5134406;27;20550;-35
2022/11/15 12:54:24;;;;;;;1.23;0.90;;;14.70;99.90;;;;;;5126847;27;20436;-37
2022/11/15 12:57:08;;;;;;;1.93;0.80;;;14.70;99.90;;;;;;5133141;27;20420;-35
2022/11/15 13:00:07;;;;;;;1.37;0.70;;;14.60;99.90;;;;;;5133460;27;20183;-35
2022/11/15 13:02:47;;;;;;;0.93;0.77;;;14.50;99.90;;;;;;5133981;27;20493;-35
2022/11/15 13:05:15;;;;;;;3.43;0.80;;;14.50;99.90;;;;;;5133889;27;20409;-35
2022/11/15 13:07:41;;;;;;;2.00;0.93;;;14.50;99.90;;;;;;5133915;27;20415;-35
2022/11/15 13:10:10;;;;;;;1.50;0.70;;;14.50;99.90;;;;;;5132224;27;20397;-35
2022/11/15 13:12:40;;;;;;;1.30;0.90;;;14.50;99.90;;;;;;5133205;27;20159;-35